createdAt,value
2023-05-12T00:02:19.786Z,12.26
2023-05-12T00:07:19.832Z,12.22
2023-05-12T00:12:18.513Z,12.13
2023-05-12T00:17:17.293Z,11.98
2023-05-12T00:22:17.075Z,11.95
2023-05-12T00:27:17.209Z,11.88
2023-05-12T00:32:15.923Z,11.97
2023-05-12T00:37:14.617Z,11.93
2023-05-12T00:42:13.578Z,11.90
2023-05-12T00:47:14.015Z,11.91
2023-05-12T00:52:12.962Z,11.81
2023-05-12T00:57:12.246Z,11.74
2023-05-12T01:02:11.036Z,11.74
2023-05-12T01:07:19.442Z,11.51
2023-05-12T01:12:18.690Z,11.53
2023-05-12T01:17:21.282Z,11.45
2023-05-12T01:22:22.118Z,11.34
2023-05-12T01:27:25.480Z,11.34
2023-05-12T01:32:25.367Z,11.28
2023-05-12T01:37:26.618Z,11.32
2023-05-12T01:42:27.980Z,11.13
2023-05-12T01:47:27.986Z,11.19
2023-05-12T01:52:35.260Z,11.15
2023-05-12T01:57:36.528Z,11.15
2023-05-12T02:02:35.635Z,11.04
2023-05-12T02:07:34.749Z,11.07
2023-05-12T02:12:34.688Z,11.03
2023-05-12T02:17:35.427Z,11.03
2023-05-12T02:22:36.702Z,10.97
2023-05-12T02:27:35.550Z,10.84
2023-05-12T02:32:35.932Z,10.76
2023-05-12T02:37:37.317Z,10.65
2023-05-12T02:42:38.572Z,10.71
2023-05-12T02:47:39.235Z,10.77
2023-05-12T02:52:38.557Z,10.70
2023-05-12T02:57:48.112Z,10.67
2023-05-12T03:02:48.290Z,10.63
2023-05-12T03:07:49.484Z,10.65
2023-05-12T03:12:48.393Z,10.61
2023-05-12T03:17:48.792Z,10.64
2023-05-12T03:22:47.918Z,10.64
2023-05-12T03:27:47.702Z,10.70
2023-05-12T03:32:46.526Z,10.76
2023-05-12T03:37:46.813Z,10.88
2023-05-12T03:42:46.367Z,10.98
2023-05-12T03:47:45.272Z,11.07
2023-05-12T03:52:44.256Z,11.10
2023-05-12T03:57:44.624Z,11.34
2023-05-12T04:02:43.557Z,11.36
2023-05-12T04:07:42.459Z,11.52
2023-05-12T04:12:41.142Z,11.55
2023-05-12T04:17:41.792Z,11.67
2023-05-12T04:22:40.602Z,11.72
2023-05-12T04:27:39.338Z,11.85
2023-05-12T04:32:38.299Z,11.99
2023-05-12T04:37:39.721Z,12.19
2023-05-12T04:42:39.156Z,12.46
2023-05-12T04:47:40.068Z,12.58
2023-05-12T04:52:40.632Z,12.80
2023-05-12T04:57:41.559Z,12.91
2023-05-12T05:02:42.702Z,13.08
2023-05-12T05:07:42.973Z,13.26
2023-05-12T05:12:41.809Z,13.30
2023-05-12T05:17:40.659Z,13.48
2023-05-12T05:22:42.379Z,13.66
2023-05-12T05:27:41.736Z,13.73
2023-05-12T05:32:40.789Z,13.85
2023-05-12T05:37:39.954Z,13.99
2023-05-12T05:42:40.105Z,14.20
2023-05-12T05:47:38.965Z,14.42
2023-05-12T05:52:39.028Z,14.56
2023-05-12T05:57:39.242Z,14.66
2023-05-12T06:02:38.362Z,14.86
2023-05-12T06:07:37.292Z,15.13
2023-05-12T06:12:36.122Z,15.38
2023-05-12T06:17:36.350Z,15.49
2023-05-12T06:22:35.364Z,15.67
2023-05-12T06:27:34.104Z,15.98
2023-05-12T06:32:32.871Z,16.15
2023-05-12T06:37:33.003Z,16.25
2023-05-12T06:42:34.226Z,16.51
2023-05-12T06:47:40.396Z,16.55
2023-05-12T06:52:40.661Z,16.71
2023-05-12T06:57:39.445Z,16.97
2023-05-12T07:02:38.270Z,17.31
2023-05-12T07:07:37.033Z,17.37
2023-05-12T07:12:41.171Z,17.25
2023-05-12T07:17:39.903Z,17.42
2023-05-12T07:22:39.077Z,17.17
2023-05-12T07:27:38.054Z,17.28
2023-05-12T07:32:41.508Z,17.29
2023-05-12T07:37:41.596Z,18.02
2023-05-12T07:42:40.356Z,17.86
2023-05-12T07:47:40.792Z,17.48
2023-05-12T07:52:48.051Z,17.59
2023-05-12T07:57:46.885Z,17.65
2023-05-12T08:02:47.529Z,17.60
2023-05-12T08:07:48.481Z,17.57
2023-05-12T08:12:48.119Z,17.67
2023-05-12T08:17:49.839Z,17.97
2023-05-12T08:22:51.020Z,17.96
2023-05-12T08:27:51.124Z,18.18
2023-05-12T08:32:51.307Z,18.30
2023-05-12T08:37:50.317Z,18.45
2023-05-12T08:43:01.052Z,18.83
2023-05-12T08:48:02.416Z,19.30
2023-05-12T08:53:02.817Z,19.44
2023-05-12T08:58:04.096Z,19.99
2023-05-12T09:03:18.066Z,20.64
2023-05-12T09:08:16.865Z,21.26
2023-05-12T09:13:21.524Z,21.13
2023-05-12T09:18:21.960Z,21.55
2023-05-12T09:23:23.336Z,21.84
2023-05-12T09:28:22.298Z,21.69
2023-05-12T09:33:25.467Z,21.43
2023-05-12T09:38:24.253Z,21.33
2023-05-12T09:43:23.456Z,21.09
2023-05-12T09:48:27.473Z,20.99
2023-05-12T09:53:27.516Z,20.49
2023-05-12T09:58:28.388Z,20.42
2023-05-12T10:03:31.790Z,20.24
2023-05-12T10:08:35.231Z,20.01
2023-05-12T10:13:35.135Z,19.83
2023-05-12T10:18:36.517Z,19.62
2023-05-12T10:23:41.364Z,20.04
2023-05-12T10:28:40.224Z,20.21
2023-05-12T10:33:40.574Z,20.46
2023-05-12T10:38:45.789Z,20.70
2023-05-12T10:43:53.968Z,20.82
2023-05-12T10:49:00.430Z,20.90
2023-05-12T10:54:01.148Z,21.05
2023-05-12T10:59:23.614Z,21.05
2023-05-12T11:04:25.483Z,20.87
2023-05-12T11:09:24.922Z,20.75
2023-05-12T11:14:24.901Z,20.50
2023-05-12T11:19:32.505Z,20.20
2023-05-12T11:24:31.427Z,20.41
2023-05-12T11:29:30.407Z,20.46
2023-05-12T11:34:31.125Z,20.21
2023-05-12T11:39:32.428Z,20.44
2023-05-12T11:44:31.584Z,20.45
2023-05-12T11:49:32.930Z,20.52
2023-05-12T11:54:31.923Z,20.32
2023-05-12T11:59:32.013Z,20.40
2023-05-12T12:04:40.421Z,20.31
2023-05-12T12:09:41.822Z,20.03
2023-05-12T12:14:41.707Z,20.23
2023-05-12T12:19:41.875Z,20.37
2023-05-12T12:24:40.685Z,20.47
2023-05-12T12:29:39.545Z,20.23
2023-05-12T12:34:38.292Z,19.90
2023-05-12T12:39:38.438Z,19.93
2023-05-12T12:44:37.318Z,20.11
2023-05-12T12:49:36.104Z,20.40
2023-05-12T12:54:35.617Z,20.76
2023-05-12T12:59:35.844Z,21.06
2023-05-12T13:04:34.613Z,21.07
2023-05-12T13:09:33.512Z,21.08
2023-05-12T13:14:32.256Z,21.16
2023-05-12T13:19:37.793Z,21.29
2023-05-12T13:24:37.083Z,21.71
2023-05-12T13:29:36.100Z,22.34
2023-05-12T13:34:36.156Z,22.74
2023-05-12T13:39:35.747Z,23.29
2023-05-12T13:44:34.607Z,23.89
2023-05-12T13:49:33.438Z,24.28
2023-05-12T13:54:34.451Z,24.11
2023-05-12T13:59:33.469Z,23.94
2023-05-12T14:04:34.399Z,23.93
2023-05-12T14:09:34.594Z,23.50
2023-05-12T14:14:33.359Z,23.15
2023-05-12T14:19:32.432Z,23.24
2023-05-12T14:24:31.520Z,23.34
2023-05-12T14:29:31.524Z,23.06
2023-05-12T14:34:30.336Z,22.81
2023-05-12T14:39:29.032Z,22.31
2023-05-12T14:44:27.846Z,22.22
2023-05-12T14:49:27.960Z,22.36
2023-05-12T14:54:26.924Z,22.15
2023-05-12T14:59:25.571Z,22.10
2023-05-12T15:04:24.578Z,21.58
2023-05-12T15:09:24.665Z,21.41
2023-05-12T15:19:23.074Z,21.16
2023-05-12T15:24:21.852Z,21.25
2023-05-12T15:29:22.331Z,21.26
2023-05-12T15:34:21.098Z,20.88
2023-05-12T15:39:21.101Z,20.65
2023-05-12T15:44:22.029Z,20.75
2023-05-12T15:49:20.979Z,20.72
2023-05-12T15:54:20.300Z,20.56
2023-05-12T15:59:19.953Z,20.32
2023-05-12T16:04:20.156Z,20.29
2023-05-12T16:09:18.962Z,20.19
2023-05-12T16:14:18.778Z,20.14
2023-05-12T16:19:19.230Z,19.97
2023-05-12T16:24:18.373Z,19.79
2023-05-12T16:29:17.633Z,19.61
2023-05-12T16:34:16.302Z,19.47
2023-05-12T16:39:18.029Z,19.44
2023-05-12T16:44:16.773Z,19.44
2023-05-12T16:49:15.567Z,19.27
2023-05-12T16:54:14.273Z,19.17
2023-05-12T16:59:14.443Z,18.97
2023-05-12T17:04:13.111Z,18.85
2023-05-12T17:09:11.867Z,18.76
2023-05-12T17:14:10.601Z,18.56
2023-05-12T17:24:12.657Z,18.28
2023-05-12T17:29:11.454Z,18.29
2023-05-12T17:34:14.594Z,18.26
2023-05-12T17:39:15.975Z,18.06
2023-05-12T17:44:14.781Z,18.04
2023-05-12T17:49:15.171Z,17.93
2023-05-12T17:54:14.702Z,17.74
2023-05-12T17:59:15.662Z,17.69
2023-05-12T18:04:15.818Z,17.61
2023-05-12T18:09:14.785Z,17.50
2023-05-12T18:14:13.546Z,17.50
2023-05-12T18:19:12.329Z,17.48
2023-05-12T18:24:12.543Z,17.41
2023-05-12T18:29:11.361Z,17.26
2023-05-12T18:34:10.354Z,17.19
2023-05-12T18:39:10.725Z,17.01
2023-05-12T18:44:11.141Z,17.08
2023-05-12T18:49:10.678Z,17.08
2023-05-12T18:54:09.426Z,16.93
2023-05-12T18:59:08.299Z,16.93
2023-05-12T19:04:08.537Z,16.94
2023-05-12T19:09:07.844Z,17.08
2023-05-12T19:14:07.112Z,17.14
2023-05-12T19:19:06.149Z,17.13
2023-05-12T19:24:07.099Z,17.03
2023-05-12T19:29:06.216Z,17.04
2023-05-12T19:34:05.272Z,17.04
2023-05-12T19:39:04.212Z,17.11
2023-05-12T19:44:04.509Z,17.14
2023-05-12T19:49:03.720Z,17.04
2023-05-12T19:54:04.929Z,17.03
2023-05-12T19:59:05.086Z,16.95
2023-05-12T20:04:03.967Z,16.94
2023-05-12T20:09:02.842Z,16.81
2023-05-12T20:14:01.812Z,16.73
2023-05-12T20:19:03.070Z,16.55
2023-05-12T20:24:02.207Z,16.48
2023-05-12T20:29:01.421Z,16.40
2023-05-12T20:34:01.648Z,16.27
2023-05-12T20:39:00.703Z,16.16
2023-05-12T20:43:59.627Z,16.00
2023-05-12T20:48:58.313Z,16.02
2023-05-12T20:53:58.501Z,16.04
2023-05-12T20:59:10.561Z,16.12
2023-05-12T21:04:09.531Z,15.96
2023-05-12T21:09:09.946Z,15.99
2023-05-12T21:14:08.722Z,16.00
2023-05-12T21:19:07.905Z,15.89
2023-05-12T21:24:07.130Z,15.69
2023-05-12T21:29:07.323Z,15.66
2023-05-12T21:34:06.107Z,15.56
2023-05-12T21:39:05.064Z,15.56
2023-05-12T21:44:04.085Z,15.45
2023-05-12T21:49:04.310Z,15.43
2023-05-12T21:54:03.150Z,15.34
2023-05-12T21:59:01.887Z,15.33
2023-05-12T22:04:00.643Z,15.22
2023-05-12T22:09:00.841Z,15.23
2023-05-12T22:13:59.621Z,15.17
2023-05-12T22:18:59.157Z,15.21
2023-05-12T22:23:58.083Z,15.16
2023-05-12T22:28:58.269Z,15.10
2023-05-12T22:33:57.098Z,15.04
2023-05-12T22:38:55.937Z,14.90
2023-05-12T22:43:54.872Z,14.94
2023-05-12T22:48:55.062Z,14.95
2023-05-12T22:53:53.859Z,14.86
2023-05-12T22:58:52.556Z,14.76
2023-05-12T23:03:51.390Z,14.63
2023-05-12T23:08:51.558Z,14.62
2023-05-12T23:13:50.531Z,14.70
2023-05-12T23:18:49.302Z,14.79
2023-05-12T23:23:48.191Z,14.84
2023-05-12T23:28:48.350Z,14.77
2023-05-12T23:33:47.413Z,14.79
2023-05-12T23:38:46.242Z,14.83
2023-05-12T23:43:44.996Z,14.87
2023-05-12T23:48:45.234Z,14.87
2023-05-12T23:53:44.085Z,14.91
2023-05-12T23:58:42.849Z,14.94
